22 de maio de 2022

Tempo Código Clima Temp. Visão Nuvens Vento METAR/SPECI
08:55
V
14 °C 10 km+ - 160°   160° 5 kt METAR EHLE 220655Z AUTO 16005KT 9999 NCD 14/11 Q1018 NOSIG
08:25
V
13 °C 10 km+ - 150°   150° 3 kt METAR EHLE 220625Z AUTO 15003KT 110V180 9999 NCD 13/11 Q1018 NOSIG
07:55
V
11 °C 10 km+ - 160°   160° 3 kt METAR EHLE 220555Z AUTO 16003KT 130V190 9999 NCD 11/10 Q1018 NOSIG
07:25
V
10 °C 10 km+ - Var   Var 2 kt METAR EHLE 220525Z AUTO VRB02KT 9999 NCD 10/10 Q1018 NOSIG
06:55
V
9 °C 10 km+ - 120°   120° 2 kt METAR EHLE 220455Z AUTO 12002KT 9999 NSC 09/08 Q1018
06:25
V
7 °C 10 km+ - 140°   140° 1 kt METAR EHLE 220425Z AUTO 14001KT 9999 NSC 07/07 Q1018
05:55
V
7 °C 10 km+ - 150°   150° 3 kt METAR EHLE 220355Z AUTO 15003KT 9999 NSC 07/07 Q1018
05:25
V
7 °C 10 km+ - 120°   120° 2 kt METAR EHLE 220325Z AUTO 12002KT 9999 NSC 07/06 Q1018
04:55
V
7 °C 10 km+ - 160°   160° 3 kt METAR EHLE 220255Z AUTO 16003KT 110V180 9999 NSC 07/07 Q1018
04:25
V
7 °C 10 km+ - 160°   160° 3 kt METAR EHLE 220225Z AUTO 16003KT 9999 NCD 07/07 Q1018
03:55
V
8 °C 10 km+ - Var   Var 1 kt METAR EHLE 220155Z AUTO VRB01KT 9999 NCD 08/07 Q1019
03:25
V
8 °C 10 km+ - 050°   050° 1 kt METAR EHLE 220125Z AUTO 05001KT 9999 NCD 08/08 Q1019
02:55
V
7 °C 10 km+ - 360°   360° 2 kt METAR EHLE 220055Z AUTO 36002KT 9999 NCD 07/07 Q1019
02:25
V
8 °C 10 km+ - 170°   170° 3 kt METAR EHLE 220025Z AUTO 17003KT 9999 NSC 08/08 Q1019
01:55
V
8 °C 10 km+ - 160°   160° 2 kt METAR EHLE 212355Z AUTO 16002KT 9999 NCD 08/08 Q1019
01:25
V
9 °C 10 km+ - 230°   230° 2 kt METAR EHLE 212325Z AUTO 23002KT 9999 NSC 09/08 Q1019
00:55
V
8 °C 10 km+ - Var   000° 0 kt METAR EHLE 212255Z AUTO 00000KT 9999 NSC 08/08 Q1019
00:25
V
9 °C 10 km+ - 150°   150° 2 kt METAR EHLE 212225Z AUTO 15002KT 9999 NSC 09/09 Q1019

21 de maio de 2022

Tempo Código Clima Temp. Visão Nuvens Vento METAR/SPECI
23:55
V
10 °C 10 km+ - 140°   140° 3 kt METAR EHLE 212155Z AUTO 14003KT 9999 NCD 10/09 Q1020
23:25
V
10 °C 10 km+ - 250°   250° 1 kt METAR EHLE 212125Z AUTO 25001KT 9999 NCD 10/09 Q1020
22:55
V
11 °C 10 km+ - 280°   280° 3 kt METAR EHLE 212055Z AUTO 28003KT 9999 NCD 11/09 Q1020
22:25
V
12 °C 10 km+ - Var   Var 2 kt METAR EHLE 212025Z AUTO VRB02KT 9999 NCD 12/09 Q1020
21:55
V
13 °C 10 km+ - 320°   320° 3 kt METAR EHLE 211955Z AUTO 32003KT 9999 NSC 13/09 Q1020 NOSIG
21:25
V
14 °C 10 km+ - 310°   310° 3 kt METAR EHLE 211925Z AUTO 31003KT 9999 NSC 14/10 Q1020 NOSIG
20:55
V
15 °C 10 km+ - 320°   320° 4 kt METAR EHLE 211855Z AUTO 32004KT 9999 NSC 15/10 Q1020 NOSIG
20:25
V
16 °C 10 km+ - 320°   320° 6 kt METAR EHLE 211825Z AUTO 32006KT 290V350 9999 NSC 16/10 Q1020 NOSIG
19:55
V
16 °C 10 km+ - 300°   300° 6 kt METAR EHLE 211755Z AUTO 30006KT 250V330 9999 NSC 16/09 Q1020 NOSIG
19:25
V
15 °C 10 km+ - 290°   290° 8 kt METAR EHLE 211725Z AUTO 29008KT 260V340 9999 NSC 15/09 Q1020 NOSIG
18:55
V
16 °C 10 km+ - 280°   280° 10 kt METAR EHLE 211655Z AUTO 28010KT 240V320 9999 NSC 16/09 Q1020 NOSIG
18:25
V
16 °C 10 km+ - 290°   290° 9 kt METAR EHLE 211625Z AUTO 29009KT 240V330 9999 NSC 16/10 Q1020 NOSIG
17:55
V
15 °C 10 km+ - 300°   300° 11 kt METAR EHLE 211555Z AUTO 30011KT 270V330 9999 NSC 15/10 Q1021 NOSIG
17:25
V
16 °C 10 km+ - 290°   290° 11 kt METAR EHLE 211525Z AUTO 29011KT 250V330 9999 NSC 16/10 Q1021 NOSIG
16:55
V
16 °C 10 km+ - 280°   280° 11 kt METAR EHLE 211455Z AUTO 28011KT 250V310 9999 NSC 16/10 Q1021 NOSIG
16:25
V
16 °C 10 km+ - 270°   270° 11 kt METAR EHLE 211425Z AUTO 27011KT 240V320 9999 NSC 16/10 Q1021 NOSIG
15:55
V
16 °C 10 km+ - 280°   280° 11 kt METAR EHLE 211355Z AUTO 28011KT 250V310 9999 FEW043 16/11 Q1021 NOSIG
15:25
V
17 °C 10 km+ - 270°   270° 11 kt METAR EHLE 211325Z AUTO 27011KT 240V310 9999 FEW024 SCT033 17/11 Q1021 NOSIG
14:55
V
17 °C 10 km+ - 270°   270° 12 kt METAR EHLE 211255Z AUTO 27012KT 240V330 9999 FEW029 17/11 Q1021 NOSIG
14:25
M
17 °C 10 km+ 2.700 ft 270°   270° 11 kt METAR EHLE 211225Z AUTO 27011KT 220V310 9999 BKN027 BKN031 BKN036 17/11 Q1021 NOSIG
13:55
V
17 °C 10 km+ - 280°   280° 12 kt METAR EHLE 211155Z AUTO 28012KT 240V310 9999 FEW031 17/10 Q1020 NOSIG
13:25
V
17 °C 10 km+ 4.200 ft 260°   260° 13 kt METAR EHLE 211125Z AUTO 26013KT 230V300 9999 FEW026 SCT030 BKN042 17/10 Q1020 NOSIG
12:55
V
16 °C 10 km+ - 270°   270° 11 kt METAR EHLE 211055Z AUTO 27011KT 230V320 9999 FEW024 SCT036 16/11 Q1020 NOSIG
12:25
M
16 °C 10 km+ 2.500 ft 280°   280° 11 kt METAR EHLE 211025Z AUTO 28011KT 240V330 9999 BKN025 BKN029 BKN035 16/10 Q1020 NOSIG
11:55
M
16 °C 10 km+ 2.300 ft 270°   270° 12 kt METAR EHLE 210955Z AUTO 27012KT 230V310 9999 BKN023 BKN027 BKN030 16/11 Q1020 NOSIG
11:25
V
16 °C 10 km+ 3.100 ft 270°   270° 13 kt METAR EHLE 210925Z AUTO 27013KT 240V320 9999 SCT021 BKN031 16/11 Q1020 NOSIG
10:55
M
16 °C 10 km+ 2.300 ft 270°   270° 15 kt METAR EHLE 210855Z AUTO 27015KT 220V300 9999 SCT020 BKN023 BKN027 16/11 Q1020 NOSIG
10:25
M
15 °C 10 km+ 2.300 ft 270°   270° 14 kt METAR EHLE 210825Z AUTO 27014KT 230V300 9999 SCT019 BKN023 15/11 Q1020 NOSIG
09:55
M
15 °C 10 km+ 2.300 ft 280°   280° 14 kt METAR EHLE 210755Z AUTO 28014KT 230V310 9999 SCT019 BKN023 15/10 Q1019 NOSIG
09:25
V
15 °C 10 km+ - 260°   260° 14 kt METAR EHLE 210725Z AUTO 26014KT 230V290 9999 FEW019 SCT023 15/11 Q1019 NOSIG
08:55
V
15 °C 10 km+ - 260°   260° 14 kt METAR EHLE 210655Z AUTO 26014KT 9999 SCT018 15/11 Q1019 NOSIG
08:25
V
14 °C 10 km+ - 260°   260° 13 kt METAR EHLE 210625Z AUTO 26013KT 9999 FEW016 14/11 Q1018 NOSIG
07:55
V
14 °C 10 km+ - 260°   260° 11 kt METAR EHLE 210555Z AUTO 26011KT 220V290 9999 NCD 14/11 Q1018 NOSIG
07:25
V
13 °C 10 km+ - 260°   260° 11 kt METAR EHLE 210525Z AUTO 26011KT 9999 FEW018 13/11 Q1018 NOSIG
06:55
V
13 °C 10 km+ - 250°   250° 12 kt METAR EHLE 210455Z AUTO 25012KT 220V280 9999 SCT017 SCT021 13/11 Q1018 NOSIG
06:25
M
13 °C 10 km+ 2.000 ft 250°   250° 11 kt METAR EHLE 210425Z AUTO 25011KT 9999 SCT016 BKN020 13/11 Q1018
05:55
M
13 °C 10 km+ 1.900 ft 250°   250° 13 kt METAR EHLE 210355Z AUTO 25013KT 9999 SCT016 BKN019 BKN037 13/11 Q1017
05:25
M
13 °C 10 km+ 2.000 ft 250°   250° 14 kt METAR EHLE 210325Z AUTO 25014KT 220V280 9999 SCT016 OVC020 13/11 Q1017
04:55
M
13 °C 10 km+ 2.000 ft 240°   240° 12 kt METAR EHLE 210255Z AUTO 24012KT 210V270 9999 SCT017 OVC020 13/11 Q1017
04:25
M
13 °C 10 km+ 1.700 ft 240°   240° 12 kt METAR EHLE 210225Z AUTO 24012KT 9999 FEW014 BKN017 OVC021 13/11 Q1017
03:55
M
13 °C 10 km+ 1.500 ft 240°   240° 13 kt METAR EHLE 210155Z AUTO 24013KT 9999 BKN015 OVC018 13/11 Q1017
03:25
M
13 °C 10 km+ 1.500 ft 230°   230° 11 kt METAR EHLE 210125Z AUTO 23011KT 9999 SCT012 BKN015 OVC019 13/11 Q1017
02:55
M
12 °C 10 km+ 1.400 ft 220°   220° 11 kt METAR EHLE 210055Z AUTO 22011KT 190V260 9999 FEW011 BKN014 OVC016 12/11 Q1017
02:25
M
12 °C 10 km+ 1.300 ft 220°   220° 11 kt METAR EHLE 210025Z AUTO 22011KT 190V250 9999 FEW011 BKN013 BKN016 12/11 Q1017
01:55
V
12 °C 10 km+ - 220°   220° 9 kt METAR EHLE 202355Z AUTO 22009KT 9999 FEW010 12/11 Q1017
01:25
V
11 °C 9 km - 220°   220° 7 kt METAR EHLE 202325Z AUTO 22007KT 190V250 9000 NSC 11/10 Q1018
00:55
V
11 °C 10 km+ - 240°   240° 9 kt METAR EHLE 202255Z AUTO 24009KT 9999 FEW011 11/10 Q1018
00:25
M
11 °C 10 km+ 1.600 ft 230°   230° 9 kt METAR EHLE 202225Z AUTO 23009KT 9999 SCT013 BKN016 11/10 Q1018

20 de maio de 2022

Tempo Código Clima Temp. Visão Nuvens Vento METAR/SPECI
23:55
V
12 °C 10 km+ - 250°   250° 9 kt METAR EHLE 202155Z AUTO 25009KT 9999 SCT015 12/10 Q1018
23:25
V
12 °C 10 km+ - 260°   260° 10 kt METAR EHLE 202125Z AUTO 26010KT 230V290 9999 FEW015 SCT020 12/10 Q1017
22:55
M
12 °C 10 km+ 1.800 ft 260°   260° 13 kt METAR EHLE 202055Z AUTO 26013KT 9999 SCT015 BKN018 OVC021 12/11 Q1017
22:25
V
12 °C 10 km+ 3.400 ft 270°   270° 10 kt METAR EHLE 202025Z AUTO 27010KT 9999 FEW015 BKN034 OVC039 12/11 Q1017 REDZ
21:55
M
12 °C 9 km 1.300 ft 270°   270° 11 kt METAR EHLE 201955Z AUTO 27011KT 240V310 9000 DZ FEW006 SCT007 BKN013 12/11 Q1016
21:25
I
12 °C 8 km 700 ft 270°   270° 14 kt METAR EHLE 201925Z AUTO 27014KT 240V300 8000 FEW006 BKN007 BKN010 12/11 Q1016 REDZ TEMPO 6000 -RADZ SCT008 BKN020
20:55
I
12 °C 6 km 700 ft 280°   280° 9 kt METAR EHLE 201855Z AUTO 28009KT 240V310 6000 FEW006 BKN007 BKN009 12/11 Q1016 REDZ BECMG 9999 TEMPO SCT008 BKN020
20:25
M
12 °C 6 km 1.200 ft 280°   280° 14 kt METAR EHLE 201825Z AUTO 28014KT 250V320 6000 +DZ FEW008 SCT010 BKN012 12/11 Q1015 BECMG 9999 NSW TEMPO SCT008 BKN025
19:55
M
13 °C 10 km+ 2.000 ft 280°   280° 12 kt METAR EHLE 201755Z AUTO 28012KT 240V320 9999 DZRA FEW007 BKN020 OVC024 13/12 Q1015 TEMPO 6000 -RA BKN008
19:25
M
14 °C 10 km+ 1.900 ft 280°   280° 9 kt METAR EHLE 201725Z AUTO 28009KT 250V310 9999 FEW012 SCT014 BKN019 14/12 Q1014 TEMPO BKN010
18:55
V
14 °C 10 km+ 4.200 ft 310°   310° 10 kt METAR EHLE 201655Z AUTO 31010KT 270V340 9999 FEW010 SCT012 BKN042 14/12 Q1013 TEMPO BKN010
18:25
V
14 °C 10 km+ - 340°   340° 9 kt METAR EHLE 201625Z AUTO 34009KT 310V010 9999 -DZ FEW034 14/13 Q1013 REDZ TEMPO BKN010
17:55
I
14 °C 6 km 700 ft 330°   330° 13 kt METAR EHLE 201555Z AUTO 33013KT 300V010 6000 -RADZ FEW006 BKN007 OVC009 14/13 Q1013 RERA BECMG 9999 NSW TEMPO SCT010 BKN030
17:25
M
13 °C 6 km 2.400 ft 360°   360° 8 kt METAR EHLE 201525Z AUTO 36008KT 6000 SHRA SCT015CB BKN024 OVC028 13/13 Q1012 TEMPO BKN012 BECMG 9999 NSW
16:55
M
13 °C 6 km 1.500 ft 350°   350° 9 kt METAR EHLE 201455Z AUTO 35009KT 320V020 6000 RA BKN015CB BKN030 OVC043 13/13 Q1013 TEMPO BKN012 BECMG 9999 NSW
16:25
I
14 °C 4,8 km 2.100 ft 010°   010° 9 kt METAR EHLE 201425Z AUTO 01009KT 330V050 4800 RA SCT015CB SCT018 BKN021 OVC024 14/13 Q1013 RERA REDZ TEMPO 6000 RA BKN012
15:55
M
15 °C 8 km 2.400 ft Var   Var 2 kt METAR EHLE 201355Z AUTO VRB02KT 8000 -SHRA +DZ FEW015CB BKN024 OVC028 15/14 Q1013 RERA REDZ TEMPO 4000
15:25
I
16 °C 4 km 1.500 ft Var   Var 2 kt METAR EHLE 201325Z AUTO VRB02KT 4000 +RA BKN015CB BKN028 OVC032 16/14 Q1014 RERA REDZ TEMPO 6000
14:55
V
18 °C 10 km+ - 090°   090° 8 kt METAR EHLE 201255Z AUTO 09008KT 060V130 9999 NSC 18/11 Q1013 TEMPO 6000 SHRA FEW035CB
14:25
V
19 °C 10 km+ - 090°   090° 11 kt METAR EHLE 201225Z AUTO 09011KT 050V130 9999 NSC 19/11 Q1014 BECMG 6000 RA BKN040
13:55
V
19 °C 10 km+ - 100°   100° 9 kt METAR EHLE 201155Z AUTO 10009KT 050V130 9999 NSC 19/12 Q1015 NOSIG
13:25
V
19 °C 10 km+ - 100°   100° 9 kt METAR EHLE 201125Z AUTO 10009KT 060V130 9999 NSC 19/12 Q1016 NOSIG
12:55
V
19 °C 10 km+ - 090°   090° 7 kt METAR EHLE 201055Z AUTO 09007KT 050V160 9999 NSC 19/13 Q1017 NOSIG
12:25
V
18 °C 10 km+ - 110°   110° 6 kt METAR EHLE 201025Z AUTO 11006KT 050V160 9999 NSC 18/13 Q1018 NOSIG
11:55
V
17 °C 10 km+ - 100°   100° 6 kt METAR EHLE 200955Z AUTO 10006KT 060V140 9999 NSC 17/13 Q1018 NOSIG
11:25
V
16 °C 10 km+ - 110°   110° 5 kt METAR EHLE 200925Z AUTO 11005KT 060V140 9999 NSC 16/12 Q1019 NOSIG
10:55
V
15 °C 10 km+ - 110°   110° 6 kt METAR EHLE 200855Z AUTO 11006KT 080V160 9999 NSC 15/13 Q1019 NOSIG
10:25
V
15 °C 8 km - 130°   130° 6 kt METAR EHLE 200825Z AUTO 13006KT 090V150 8000 FEW006 15/13 Q1020 NOSIG
09:55
M
14 °C 7 km - 120°   120° 6 kt METAR EHLE 200755Z AUTO 12006KT 080V140 7000 FEW005 14/13 Q1020 BECMG CAVOK
09:25
L
13 °C 5 km 400 ft 120°   120° 7 kt METAR EHLE 200725Z AUTO 12007KT 080V150 5000 BKN004 OVC005 13/12 Q1021 BECMG CAVOK
08:55
I
13 °C 6 km 500 ft 120°   120° 8 kt METAR EHLE 200655Z AUTO 12008KT 080V140 6000 BR FEW003 BKN005 BKN006 13/12 Q1021 BECMG CAVOK
08:25
M
13 °C 6 km - 120°   120° 8 kt METAR EHLE 200625Z AUTO 12008KT 6000 FEW004 SCT005 13/13 Q1021 BECMG CAVOK
07:55
I
13 °C 4,9 km - 120°   120° 6 kt METAR EHLE 200555Z AUTO 12006KT 090V150 4900 FEW004 13/12 Q1021 BECMG CAVOK
07:25
I
11 °C 3,4 km - 100°   100° 4 kt METAR EHLE 200525Z AUTO 10004KT 3400 BR NSC 11/11 Q1021 BECMG CAVOK
06:55
I
10 °C 3 km - 100°   100° 4 kt METAR EHLE 200455Z AUTO 10004KT 070V140 3000 BR NSC 10/10 Q1021
Dados mais antigos

Baixe nosso aplicativo

Fácil acesso a todas as condições meteorológicas da aviação no seu celular e no seu tablet.
Com muitos recursos não disponíveis no site, como suporte offline e uma lista pessoal de aeroportos.

Nós e terceiros acompanhamos seu comportamento na internet em nosso site com cookies. Se você continuar, nós assumimos que você concorda com nossa política de cookies. Saiba mais